createdAt,value
2019-01-24T00:00:24.590Z,97106.68
2019-01-24T00:02:52.820Z,97106.68
2019-01-24T00:07:06.716Z,97101.05
2019-01-24T00:09:34.916Z,97101.05
2019-01-24T00:12:03.413Z,97105.16
2019-01-24T00:14:33.747Z,97105.16
2019-01-24T00:17:02.342Z,97106.27
2019-01-24T00:19:31.745Z,97119.63
2019-01-24T00:22:00.771Z,97114.55
2019-01-24T00:24:29.452Z,97114.55
2019-01-24T00:26:59.840Z,97132.98
2019-01-24T00:29:28.787Z,97134.08
2019-01-24T00:31:57.909Z,97134.08
2019-01-24T00:34:27.782Z,97138.13
2019-01-24T00:36:56.764Z,97138.13
2019-01-24T00:39:24.932Z,97149.02
2019-01-24T00:41:53.760Z,97150.13
2019-01-24T00:44:22.776Z,97150.13
2019-01-24T00:46:51.798Z,97155.61
2019-01-24T00:49:20.786Z,97167.64
2019-01-24T00:51:49.943Z,97158.80
2019-01-24T00:54:21.032Z,97163.19
2019-01-24T00:56:50.850Z,97169.55
2019-01-24T00:59:19.822Z,97170.08
2019-01-24T01:01:48.829Z,97170.08
2019-01-24T01:04:17.831Z,97179.98
2019-01-24T01:06:46.887Z,97185.30
2019-01-24T01:09:15.875Z,97178.41
2019-01-24T01:11:44.895Z,97179.80
2019-01-24T01:14:13.879Z,97184.90
2019-01-24T01:16:43.792Z,97187.53
2019-01-24T01:19:13.931Z,97187.53
2019-01-24T01:21:43.907Z,97177.36
2019-01-24T01:24:13.893Z,97197.14
2019-01-24T01:26:43.920Z,97200.20
2019-01-24T01:29:13.940Z,97204.33
2019-01-24T01:31:43.804Z,97191.19
2019-01-24T01:34:12.843Z,97191.19
2019-01-24T01:36:41.840Z,97209.59
2019-01-24T01:39:10.956Z,97213.69
2019-01-24T01:41:39.870Z,97211.09
2019-01-24T01:44:09.870Z,97211.09
2019-01-24T01:46:38.805Z,97217.67
2019-01-24T01:49:08.857Z,97217.67
2019-01-24T01:51:37.741Z,97225.08
2019-01-24T01:54:06.488Z,97217.09
2019-01-24T01:56:35.643Z,97217.09
2019-01-24T01:59:05.320Z,97223.92
2019-01-24T02:01:34.550Z,97230.23
2019-01-24T02:04:02.812Z,97229.23
2019-01-24T02:06:31.030Z,97235.04
2019-01-24T02:09:00.827Z,97235.55
2019-01-24T02:11:30.834Z,97228.22
2019-01-24T02:14:00.811Z,97233.47
2019-01-24T02:16:30.783Z,97238.86
2019-01-24T02:19:01.796Z,97238.86
2019-01-24T02:21:31.395Z,97245.27
2019-01-24T02:24:00.826Z,97251.85
2019-01-24T02:26:31.636Z,97256.85
2019-01-24T02:29:01.757Z,97256.85
2019-01-24T02:31:31.509Z,97257.48
2019-01-24T02:34:01.000Z,97256.72
2019-01-24T02:36:31.869Z,97256.72
2019-01-24T02:39:01.808Z,97259.38
2019-01-24T02:41:31.802Z,97247.33
2019-01-24T02:44:01.804Z,97247.33
2019-01-24T02:46:52.435Z,97262.05
2019-01-24T02:49:21.777Z,97271.40
2019-01-24T02:51:49.806Z,97271.40
2019-01-24T02:56:19.828Z,97274.73
2019-01-24T02:58:48.839Z,97281.91
2019-01-24T03:01:17.519Z,97282.66
2019-01-24T03:03:46.387Z,97280.00
2019-01-24T03:06:14.889Z,97282.57
2019-01-24T03:08:43.946Z,97278.91
2019-01-24T03:11:12.834Z,97256.53
2019-01-24T03:13:40.906Z,97256.53
2019-01-24T03:16:09.849Z,97283.04
2019-01-24T03:18:38.885Z,97274.78
2019-01-24T03:21:07.836Z,97291.74
2019-01-24T03:23:35.946Z,97291.74
2019-01-24T03:26:04.834Z,97281.20
2019-01-24T03:28:32.885Z,97281.20
2019-01-24T03:31:00.804Z,97303.71
2019-01-24T03:46:44.417Z,97306.59
2019-01-24T03:49:14.428Z,97313.82
2019-01-24T03:51:43.814Z,97313.53
2019-01-24T03:54:12.867Z,97309.83
2019-01-24T03:56:40.894Z,97322.04
2019-01-24T03:59:08.857Z,97309.92
2019-01-24T04:01:37.715Z,97317.09
2019-01-24T04:04:06.852Z,97317.09
2019-01-24T04:06:35.664Z,97332.50
2019-01-24T04:09:07.860Z,97332.50
2019-01-24T04:11:36.371Z,97331.19
2019-01-24T04:14:04.828Z,97331.19
2019-01-24T04:16:32.887Z,97328.78
2019-01-24T04:19:01.772Z,97320.66
2019-01-24T04:21:29.841Z,97320.66
2019-01-24T04:23:58.821Z,97337.62
2019-01-24T04:26:47.031Z,97337.62
2019-01-24T04:29:16.002Z,97339.44
2019-01-24T04:31:44.850Z,97347.45
2019-01-24T04:34:13.593Z,97340.77
2019-01-24T04:36:42.824Z,97339.28
2019-01-24T04:39:10.876Z,97339.28
2019-01-24T04:41:39.952Z,97354.63
2019-01-24T04:44:09.988Z,97352.86
2019-01-24T04:46:38.750Z,97353.30
2019-01-24T04:49:08.775Z,97353.30
2019-01-24T04:51:37.839Z,97362.69
2019-01-24T04:54:06.803Z,97362.69
2019-01-24T04:56:35.015Z,97367.98
2019-01-24T04:59:04.009Z,97379.30
2019-01-24T05:01:32.810Z,97376.63
2019-01-24T05:16:59.030Z,97397.83
2019-01-24T05:19:27.883Z,97409.47
2019-01-24T05:21:55.896Z,97406.12
2019-01-24T05:24:25.358Z,97412.20
2019-01-24T05:37:56.613Z,97421.15
2019-01-24T05:40:25.842Z,97427.02
2019-01-24T05:42:54.330Z,97424.86
2019-01-24T05:45:22.880Z,97426.43
2019-01-24T05:47:52.024Z,97432.87
2019-01-24T05:50:21.800Z,97437.91
2019-01-24T05:52:52.859Z,97437.91
2019-01-24T05:55:22.834Z,97431.06
2019-01-24T05:57:59.835Z,97431.06
2019-01-24T06:00:53.776Z,97436.69
2019-01-24T06:03:22.863Z,97436.69
2019-01-24T06:05:52.716Z,97457.72
2019-01-24T06:08:21.853Z,97457.72
2019-01-24T06:10:51.880Z,97468.48
2019-01-24T06:13:21.880Z,97464.64
2019-01-24T06:15:50.909Z,97461.27
2019-01-24T06:18:20.900Z,97449.98
2019-01-24T06:20:49.842Z,97466.31
2019-01-24T06:23:18.888Z,97464.42
2019-01-24T06:25:48.893Z,97476.39
2019-01-24T06:28:20.871Z,97477.48
2019-01-24T06:30:50.404Z,97482.31
2019-01-24T06:33:19.856Z,97482.31
2019-01-24T06:35:49.104Z,97488.19
2019-01-24T06:38:18.588Z,97488.19
2019-01-24T06:40:47.785Z,97493.16
2019-01-24T06:43:16.851Z,97492.21
2019-01-24T06:45:46.819Z,97499.75
2019-01-24T06:48:17.831Z,97499.75
2019-01-24T06:50:46.911Z,97489.60
2019-01-24T06:53:16.851Z,97488.55
2019-01-24T06:55:45.863Z,97498.14
2019-01-24T06:58:15.773Z,97506.72
2019-01-24T07:00:44.621Z,97506.72
2019-01-24T07:03:14.552Z,97505.31
2019-01-24T07:05:43.580Z,97513.89
2019-01-24T07:08:13.792Z,97516.03
2019-01-24T07:10:42.627Z,97523.20
2019-01-24T07:13:11.784Z,97524.26
2019-01-24T07:15:40.840Z,97527.48
2019-01-24T07:18:09.854Z,97544.03
2019-01-24T07:20:38.562Z,97543.22
2019-01-24T07:23:07.929Z,97543.22
2019-01-24T07:25:37.731Z,97532.75
2019-01-24T07:28:07.488Z,97532.75
2019-01-24T07:30:37.793Z,97552.94
2019-01-24T07:33:07.838Z,97546.78
2019-01-24T07:35:36.641Z,97537.76
2019-01-24T07:38:06.822Z,97537.76
2019-01-24T07:40:40.936Z,97559.77
2019-01-24T07:43:09.866Z,97559.80
2019-01-24T07:45:41.751Z,97548.48
2019-01-24T07:48:10.811Z,97548.48
2019-01-24T07:50:39.816Z,97572.05
2019-01-24T07:53:09.812Z,97558.00
2019-01-24T07:55:38.815Z,97559.33
2019-01-24T07:58:08.783Z,97559.33
2019-01-24T08:00:37.525Z,97587.99
2019-01-24T08:03:06.624Z,97587.30
2019-01-24T08:05:37.894Z,97592.51
2019-01-24T08:08:07.633Z,97591.89
2019-01-24T08:10:36.439Z,97591.89
2019-01-24T08:13:06.817Z,97602.19
2019-01-24T08:15:35.807Z,97604.88
2019-01-24T08:18:05.780Z,97608.59
2019-01-24T08:20:34.992Z,97607.26
2019-01-24T08:23:05.863Z,97606.20
2019-01-24T08:25:34.849Z,97616.59
2019-01-24T08:28:03.829Z,97616.59
2019-01-24T08:30:33.852Z,97594.14
2019-01-24T08:33:02.777Z,97619.01
2019-01-24T08:35:32.825Z,97611.34
2019-01-24T08:38:01.538Z,97621.45
2019-01-24T08:40:31.592Z,97618.98
2019-01-24T08:43:00.798Z,97618.70
2019-01-24T08:45:30.827Z,97619.50
2019-01-24T08:47:58.829Z,97627.42
2019-01-24T08:50:27.794Z,97624.20
2019-01-24T08:52:56.837Z,97625.25
2019-01-24T08:55:30.596Z,97612.23
2019-01-24T08:57:59.633Z,97612.23
2019-01-24T09:00:28.663Z,97631.59
2019-01-24T09:02:58.814Z,97629.22
2019-01-24T09:05:28.074Z,97634.25
2019-01-24T09:07:58.384Z,97630.97
2019-01-24T09:10:34.402Z,97630.97
2019-01-24T09:13:04.741Z,97634.56
2019-01-24T09:15:36.757Z,97632.09
2019-01-24T09:18:06.631Z,97643.50
2019-01-24T09:20:35.834Z,97639.45
2019-01-24T09:23:04.770Z,97640.46
2019-01-24T09:25:33.427Z,97646.55
2019-01-24T09:28:02.627Z,97641.55
2019-01-24T09:30:31.827Z,97649.73
2019-01-24T09:33:00.572Z,97652.05
2019-01-24T09:35:29.816Z,97656.33
2019-01-24T09:37:59.820Z,97662.17
2019-01-24T09:40:29.374Z,97664.06
2019-01-24T09:42:58.753Z,97673.06
2019-01-24T09:45:28.831Z,97670.97
2019-01-24T09:47:58.825Z,97679.13
2019-01-24T09:50:27.998Z,97680.28
2019-01-24T09:52:57.806Z,97690.30
2019-01-24T09:55:27.804Z,97690.30
2019-01-24T09:57:57.861Z,97672.78
2019-01-24T10:00:28.387Z,97676.53
2019-01-24T10:02:58.749Z,97676.53
2019-01-24T10:05:28.608Z,97692.16
2019-01-24T10:07:57.811Z,97691.10
2019-01-24T10:12:13.762Z,97697.66
2019-01-24T10:14:41.777Z,97699.02
2019-01-24T10:17:09.768Z,97707.28
2019-01-24T10:19:37.688Z,97704.34
2019-01-24T10:22:06.726Z,97704.03
2019-01-24T10:24:34.706Z,97713.06
2019-01-24T10:27:04.581Z,97717.31
2019-01-24T10:29:32.907Z,97715.41
2019-01-24T10:32:00.791Z,97692.02
2019-01-24T10:34:28.846Z,97692.02
2019-01-24T10:36:56.841Z,97711.31
2019-01-24T10:39:25.769Z,97706.02
2019-01-24T10:41:53.804Z,97706.02
2019-01-24T10:44:22.344Z,97717.92
2019-01-24T10:46:50.817Z,97715.83
2019-01-24T10:49:19.457Z,97716.95
2019-01-24T10:51:48.396Z,97709.73
2019-01-24T10:56:17.320Z,97723.02
2019-01-24T11:00:14.998Z,97724.03
2019-01-24T11:02:42.395Z,97721.72
2019-01-24T11:05:11.833Z,97730.77
2019-01-24T11:07:39.427Z,97734.47
2019-01-24T11:10:08.339Z,97717.23
2019-01-24T11:12:36.528Z,97733.66
2019-01-24T11:15:07.068Z,97731.52
2019-01-24T11:17:35.692Z,97737.41
2019-01-24T11:20:05.780Z,97739.23
2019-01-24T11:22:34.797Z,97742.18
2019-01-24T11:25:02.786Z,97724.63
2019-01-24T11:27:31.812Z,97735.73
2019-01-24T11:29:59.848Z,97735.73
2019-01-24T11:32:29.792Z,97733.07
2019-01-24T11:34:57.803Z,97733.07
2019-01-24T11:37:26.789Z,97732.09
2019-01-24T11:39:54.851Z,97732.86
2019-01-24T11:42:22.867Z,97716.68
2019-01-24T11:44:51.368Z,97729.14
2019-01-24T11:57:00.250Z,97720.23
2019-01-24T11:59:29.769Z,97729.87
2019-01-24T12:01:57.687Z,97723.98
2019-01-24T12:04:26.331Z,97733.52
2019-01-24T12:06:54.697Z,97724.19
2019-01-24T12:09:22.607Z,97732.19
2019-01-24T12:11:50.773Z,97733.03
2019-01-24T12:14:19.753Z,97723.70
2019-01-24T12:16:47.658Z,97728.80
2019-01-24T12:19:16.414Z,97719.47
2019-01-24T12:21:44.773Z,97726.41
2019-01-24T12:24:12.730Z,97728.02
2019-01-24T12:26:41.366Z,97730.40
2019-01-24T12:29:11.086Z,97731.21
2019-01-24T12:31:39.684Z,97734.39
2019-01-24T12:34:07.702Z,97734.39
2019-01-24T12:36:36.372Z,97731.77
2019-01-24T12:39:08.781Z,97733.06
2019-01-24T12:42:19.782Z,97734.44
2019-01-24T12:44:48.775Z,97734.44
2019-01-24T12:47:16.853Z,97735.77
2019-01-24T12:49:45.358Z,97739.23
2019-01-24T12:52:13.704Z,97739.23
2019-01-24T12:54:41.625Z,97731.52
2019-01-24T12:57:10.766Z,97731.04
2019-01-24T12:59:38.715Z,97741.69
2019-01-24T13:02:07.035Z,97734.47
2019-01-24T13:04:36.941Z,97733.95
2019-01-24T13:07:04.761Z,97734.48
2019-01-24T13:09:32.608Z,97734.48
2019-01-24T13:12:01.355Z,97743.23
2019-01-24T13:14:29.783Z,97739.03
2019-01-24T13:16:58.518Z,97737.70
2019-01-24T13:19:26.669Z,97747.02
2019-01-24T13:21:55.094Z,97750.73
2019-01-24T13:24:23.586Z,97749.41
2019-01-24T13:26:51.862Z,97748.63
2019-01-24T13:29:19.682Z,97736.92
2019-01-24T13:31:48.757Z,97736.92
2019-01-24T13:46:49.972Z,97758.27
2019-01-24T13:49:18.333Z,97763.44
2019-01-24T13:51:47.782Z,97769.84
2019-01-24T13:54:16.411Z,97770.34
2019-01-24T13:56:45.775Z,97772.20
2019-01-24T13:59:13.774Z,97771.42
2019-01-24T14:01:42.795Z,97773.84
2019-01-24T14:04:17.489Z,97784.17
2019-01-24T14:06:46.793Z,97789.00
2019-01-24T14:09:14.897Z,97792.97
2019-01-24T14:11:43.883Z,97797.48
2019-01-24T14:14:12.789Z,97790.89
2019-01-24T14:16:41.642Z,97790.89
2019-01-24T14:19:09.727Z,97794.61
2019-01-24T14:21:37.795Z,97798.34
2019-01-24T14:24:05.736Z,97795.16
2019-01-24T14:26:34.780Z,97799.41
2019-01-24T14:29:02.773Z,97803.92
2019-01-24T14:31:30.796Z,97807.42
2019-01-24T14:35:19.655Z,97808.02
2019-01-24T14:37:48.822Z,97808.02
2019-01-24T14:40:16.982Z,97821.00
2019-01-24T14:42:45.815Z,97813.34
2019-01-24T14:45:18.575Z,97813.34
2019-01-24T14:47:47.783Z,97817.56
2019-01-24T14:50:19.395Z,97826.30
2019-01-24T14:52:48.785Z,97836.42
2019-01-24T14:55:17.690Z,97842.05
2019-01-24T14:57:46.818Z,97850.34
2019-01-24T15:00:38.818Z,97843.18
2019-01-24T15:03:07.441Z,97850.08
2019-01-24T15:05:36.747Z,97849.80
2019-01-24T15:08:05.765Z,97860.70
2019-01-24T15:10:36.812Z,97860.70
2019-01-24T15:13:05.824Z,97859.13
2019-01-24T15:15:35.422Z,97856.46
2019-01-24T15:18:05.419Z,97857.01
2019-01-24T15:20:35.324Z,97861.00
2019-01-24T15:23:04.412Z,97860.98
2019-01-24T15:25:34.636Z,97860.75
2019-01-24T15:28:04.823Z,97862.59
2019-01-24T15:30:33.658Z,97860.80
2019-01-24T15:33:02.819Z,97860.27
2019-01-24T15:35:31.827Z,97856.48
2019-01-24T15:38:02.829Z,97859.72
2019-01-24T15:40:31.828Z,97859.72
2019-01-24T15:43:01.761Z,97855.75
2019-01-24T15:45:31.711Z,97840.29
2019-01-24T15:48:00.886Z,97840.29
2019-01-24T15:50:30.866Z,97861.26
2019-01-24T15:53:00.853Z,97850.91
2019-01-24T15:55:30.787Z,97850.66
2019-01-24T15:57:59.800Z,97850.66
2019-01-24T16:00:29.798Z,97875.39
2019-01-24T16:02:59.453Z,97860.28
2019-01-24T16:05:28.820Z,97860.28
2019-01-24T16:08:01.840Z,97877.52
2019-01-24T16:10:28.804Z,97887.11
2019-01-24T16:12:59.783Z,97890.30
2019-01-24T16:15:30.791Z,97891.92
2019-01-24T16:17:59.869Z,97898.08
2019-01-24T16:20:28.833Z,97899.11
2019-01-24T16:22:59.798Z,97898.86
2019-01-24T16:25:29.832Z,97890.11
2019-01-24T16:27:58.888Z,97914.54
2019-01-24T16:30:28.991Z,97921.98
2019-01-24T16:32:58.521Z,97915.08
2019-01-24T16:35:28.377Z,97915.08
2019-01-24T16:37:58.841Z,97916.41
2019-01-24T16:40:29.829Z,97924.41
2019-01-24T16:42:58.850Z,97917.48
2019-01-24T16:45:28.905Z,97915.14
2019-01-24T16:47:58.407Z,97930.55
2019-01-24T16:50:28.840Z,97930.55
2019-01-24T16:52:57.842Z,97940.11
2019-01-24T16:55:26.505Z,97938.77
2019-01-24T16:57:56.418Z,97938.77
2019-01-24T17:00:31.834Z,97943.03
2019-01-24T17:03:00.832Z,97938.05
2019-01-24T17:05:31.815Z,97938.05
2019-01-24T17:08:01.392Z,97955.83
2019-01-24T17:10:30.826Z,97956.63
2019-01-24T17:13:00.816Z,97957.45
2019-01-24T17:15:31.730Z,97956.63
2019-01-24T17:18:00.856Z,97968.05
2019-01-24T17:20:30.864Z,97966.22
2019-01-24T17:23:00.839Z,97958.31
2019-01-24T17:25:31.812Z,97973.39
2019-01-24T17:28:02.835Z,97973.39
2019-01-24T17:32:19.884Z,97981.13
2019-01-24T17:34:48.434Z,97982.21
2019-01-24T17:37:17.065Z,97986.22
2019-01-24T17:39:45.863Z,97976.41
2019-01-24T17:42:55.854Z,97993.39
2019-01-24T17:48:04.799Z,98009.84
2019-01-24T17:50:32.783Z,98009.84
2019-01-24T17:53:00.835Z,98014.09
2019-01-24T17:55:31.755Z,98020.48
2019-01-24T17:58:07.127Z,98020.48
2019-01-24T18:00:37.794Z,98024.51
2019-01-24T18:03:06.731Z,98021.31
2019-01-24T18:05:35.813Z,98019.98
2019-01-24T18:08:04.767Z,98026.65
2019-01-24T18:10:35.809Z,98020.77
2019-01-24T18:13:04.804Z,98028.75
2019-01-24T18:15:34.613Z,98032.73
2019-01-24T18:18:04.837Z,98032.73
2019-01-24T18:20:35.116Z,98035.40
2019-01-24T18:23:05.791Z,98035.40
2019-01-24T18:25:34.574Z,98038.88
2019-01-24T18:28:04.122Z,98046.31
2019-01-24T18:30:33.754Z,98046.31
2019-01-24T18:33:02.778Z,98050.03
2019-01-24T18:35:37.044Z,98044.39
2019-01-24T18:38:07.762Z,98030.06
2019-01-24T18:40:36.791Z,98030.06
2019-01-24T18:43:08.741Z,98043.31
2019-01-24T18:45:44.023Z,98043.52
2019-01-24T18:48:13.830Z,98049.13
2019-01-24T18:50:43.829Z,98033.17
2019-01-24T18:53:13.775Z,98049.63
2019-01-24T18:55:43.757Z,98049.63
2019-01-24T18:58:11.926Z,98050.95
2019-01-24T19:00:43.341Z,98063.77
2019-01-24T19:03:12.887Z,98063.77
2019-01-24T19:05:43.805Z,98037.48
2019-01-24T19:08:13.382Z,98037.48
2019-01-24T19:10:42.808Z,98065.06
2019-01-24T19:13:11.371Z,98060.23
2019-01-24T19:15:46.589Z,98069.10
2019-01-24T19:18:15.800Z,98002.94
2019-01-24T19:20:45.796Z,98069.09
2019-01-24T19:23:19.767Z,98075.75
2019-01-24T19:25:48.400Z,98081.84
2019-01-24T19:28:19.380Z,98090.38
2019-01-24T19:30:49.429Z,98083.72
2019-01-24T19:33:18.395Z,98081.77
2019-01-24T19:35:48.801Z,98083.66
2019-01-24T19:38:17.846Z,98090.56
2019-01-24T19:40:46.611Z,98092.12
2019-01-24T19:43:15.717Z,98092.12
2019-01-24T19:45:44.333Z,98095.81
2019-01-24T19:48:13.524Z,98098.43
2019-01-24T19:50:42.400Z,98100.02
2019-01-24T19:55:53.240Z,98102.42
2019-01-24T19:58:20.705Z,98108.84
2019-01-24T20:00:48.379Z,98107.45
2019-01-24T20:03:16.569Z,98111.45
2019-01-24T20:05:44.658Z,98109.93
2019-01-24T20:08:12.756Z,98109.63
2019-01-24T20:10:41.732Z,98117.52
2019-01-24T20:13:09.860Z,98118.09
2019-01-24T20:15:38.766Z,98119.19
2019-01-24T20:18:07.828Z,98119.19
2019-01-24T20:20:35.838Z,98117.13
2019-01-24T20:23:04.058Z,98117.13
2019-01-24T20:25:32.786Z,98120.86
2019-01-24T20:28:01.821Z,98131.98
2019-01-24T20:30:30.826Z,98131.18
2019-01-24T20:33:00.285Z,98138.10
2019-01-24T20:35:50.833Z,98135.97
2019-01-24T20:38:18.690Z,98142.09
2019-01-24T20:40:47.089Z,98145.88
2019-01-24T20:43:15.754Z,98148.99
2019-01-24T20:45:44.761Z,98147.30
2019-01-24T20:48:12.811Z,98154.22
2019-01-24T20:50:40.772Z,98147.36
2019-01-24T20:53:09.509Z,98162.20
2019-01-24T20:55:38.014Z,98159.27
2019-01-24T21:00:20.440Z,98162.98
2019-01-24T21:02:48.534Z,98164.37
2019-01-24T21:05:18.441Z,98165.19
2019-01-24T21:07:45.776Z,98165.16
2019-01-24T21:10:16.708Z,98172.87
2019-01-24T21:12:44.401Z,98173.65
2019-01-24T21:15:12.874Z,98169.12
2019-01-24T21:17:40.505Z,98164.94
2019-01-24T21:20:10.798Z,98164.94
2019-01-24T21:22:38.613Z,98179.56
2019-01-24T21:25:09.234Z,98181.47
2019-01-24T21:27:39.449Z,98183.09
2019-01-24T21:30:12.739Z,98162.36
2019-01-24T21:32:40.054Z,98181.18
2019-01-24T21:35:07.700Z,98191.59
2019-01-24T21:37:36.060Z,98188.14
2019-01-24T21:40:06.012Z,98191.91
2019-01-24T21:42:34.732Z,98187.34
2019-01-24T21:45:03.649Z,98188.45
2019-01-24T21:47:31.412Z,98192.97
2019-01-24T21:50:01.628Z,98183.14
2019-01-24T21:52:29.814Z,98183.14
2019-01-24T21:54:57.886Z,98184.73
2019-01-24T21:57:27.676Z,98180.52
2019-01-24T21:59:55.735Z,98180.52
2019-01-24T22:02:23.645Z,98191.14
2019-01-24T22:04:52.338Z,98192.22
2019-01-24T22:07:21.625Z,98194.05
2019-01-24T22:09:49.766Z,98192.47
2019-01-24T22:12:18.370Z,98198.33
2019-01-24T22:14:46.668Z,98204.72
2019-01-24T22:17:14.976Z,98201.28
2019-01-24T22:19:44.736Z,98205.00
2019-01-24T22:22:12.790Z,98205.00
2019-01-24T22:28:08.299Z,98193.84
2019-01-24T22:30:45.764Z,98201.05
2019-01-24T22:33:13.680Z,98210.08
2019-01-24T22:35:42.580Z,98206.62
2019-01-24T22:38:11.769Z,98211.41
2019-01-24T22:40:40.375Z,98207.16
2019-01-24T22:43:09.171Z,98205.31
2019-01-24T22:45:37.762Z,98205.31
2019-01-24T22:48:06.332Z,98199.20
2019-01-24T22:50:35.083Z,98205.56
2019-01-24T22:53:03.426Z,98194.92
2019-01-24T22:55:31.966Z,98194.92
2019-01-24T22:58:01.380Z,98196.54
2019-01-24T23:00:51.837Z,98196.54
2019-01-24T23:03:28.848Z,98200.27
2019-01-24T23:05:57.064Z,98203.73
2019-01-24T23:08:25.696Z,98202.41
2019-01-24T23:10:54.377Z,98205.88
2019-01-24T23:13:23.779Z,98198.94
2019-01-24T23:15:51.840Z,98200.83
2019-01-24T23:18:20.773Z,98205.34
2019-01-24T23:27:25.379Z,98200.81
2019-01-24T23:29:53.788Z,98203.19
2019-01-24T23:32:22.358Z,98206.15
2019-01-24T23:34:50.849Z,98201.59
2019-01-24T23:37:19.289Z,98186.72
2019-01-24T23:39:52.449Z,98186.72
2019-01-24T23:42:18.791Z,98203.77
2019-01-24T23:44:46.779Z,98203.77
2019-01-24T23:47:15.583Z,98208.55
2019-01-24T23:49:43.790Z,98216.53
2019-01-24T23:52:12.790Z,98216.80
2019-01-24T23:55:17.733Z,98200.83
2019-01-24T23:57:45.844Z,98200.83
